createdAt,value
2016-04-30T00:00:36.882Z,18.82
2016-04-30T00:01:36.853Z,18.76
2016-04-30T00:02:36.683Z,18.83
2016-04-30T00:03:36.701Z,18.79
2016-04-30T00:04:36.799Z,18.76
2016-04-30T00:05:36.785Z,18.69
2016-04-30T00:06:36.773Z,18.82
2016-04-30T00:07:36.744Z,18.72
2016-04-30T00:08:36.731Z,18.76
2016-04-30T00:09:36.702Z,18.84
2016-04-30T00:10:36.705Z,18.75
2016-04-30T00:11:36.676Z,18.74
2016-04-30T00:12:36.664Z,18.76
2016-04-30T00:13:36.635Z,18.87
2016-04-30T00:14:36.623Z,18.76
2016-04-30T00:15:36.609Z,18.75
2016-04-30T00:16:36.440Z,18.84
2016-04-30T00:17:36.567Z,18.72
2016-04-30T00:18:36.961Z,18.83
2016-04-30T00:19:36.526Z,18.75
2016-04-30T00:20:36.607Z,18.82
2016-04-30T00:21:36.500Z,18.72
2016-04-30T00:22:36.472Z,18.82
2016-04-30T00:23:36.459Z,18.75
2016-04-30T00:24:36.430Z,18.78
2016-04-30T00:25:36.418Z,18.83
2016-04-30T00:26:36.389Z,18.76
2016-04-30T00:27:36.376Z,18.75
2016-04-30T00:28:36.613Z,18.74
2016-04-30T00:29:36.022Z,18.75
2016-04-30T00:30:36.352Z,18.79
2016-04-30T00:31:36.169Z,18.75
2016-04-30T00:32:36.296Z,18.82
2016-04-30T00:33:36.596Z,18.74
2016-04-30T00:34:36.254Z,18.76
2016-04-30T00:35:36.226Z,18.74
2016-04-30T00:36:36.682Z,18.75
2016-04-30T00:37:36.200Z,18.75
2016-04-30T00:38:36.187Z,18.74
2016-04-30T00:39:35.845Z,18.79
2016-04-30T00:40:36.129Z,18.74
2016-04-30T00:41:35.976Z,18.75
2016-04-30T00:42:35.948Z,18.71
2016-04-30T00:43:35.919Z,18.75
2016-04-30T00:44:36.671Z,18.76
2016-04-30T00:45:36.049Z,18.74
2016-04-30T00:46:36.037Z,18.74
2016-04-30T00:47:36.008Z,18.69
2016-04-30T00:48:35.995Z,18.68
2016-04-30T00:49:35.982Z,18.74
2016-04-30T00:50:35.937Z,18.75
2016-04-30T00:51:35.940Z,18.71
2016-04-30T00:52:35.912Z,18.72
2016-04-30T00:53:35.587Z,18.78
2016-04-30T00:54:35.730Z,18.75
2016-04-30T00:55:35.545Z,18.71
2016-04-30T00:56:35.844Z,18.71
2016-04-30T00:57:35.816Z,18.74
2016-04-30T00:58:35.803Z,18.72
2016-04-30T00:59:35.791Z,18.78
2016-04-30T01:00:35.964Z,18.75
2016-04-30T01:01:35.749Z,18.71
2016-04-30T01:02:35.719Z,18.74
2016-04-30T01:03:36.239Z,18.76
2016-04-30T01:04:35.694Z,18.69
2016-04-30T01:05:35.681Z,18.72
2016-04-30T01:06:35.513Z,18.69
2016-04-30T01:07:35.640Z,18.76
2016-04-30T01:08:35.924Z,18.71
2016-04-30T01:09:35.598Z,18.75
2016-04-30T01:10:35.570Z,18.72
2016-04-30T01:11:35.573Z,18.72
2016-04-30T01:12:35.388Z,18.71
2016-04-30T01:13:35.374Z,18.74
2016-04-30T01:14:35.518Z,18.78
2016-04-30T01:15:35.568Z,18.74
2016-04-30T01:16:35.929Z,18.75
2016-04-30T01:17:35.292Z,18.74
2016-04-30T01:18:35.263Z,18.74
2016-04-30T01:19:35.422Z,18.74
2016-04-30T01:20:35.393Z,18.75
2016-04-30T01:21:35.068Z,18.71
2016-04-30T01:22:35.367Z,18.74
2016-04-30T01:23:35.542Z,18.69
2016-04-30T01:24:35.170Z,18.74
2016-04-30T01:25:35.156Z,18.75
2016-04-30T01:26:35.128Z,18.6
2016-04-30T01:27:35.272Z,18.74
2016-04-30T01:28:35.243Z,18.66
2016-04-30T01:29:35.074Z,18.72
2016-04-30T01:30:35.216Z,18.71
2016-04-30T01:31:35.547Z,18.65
2016-04-30T01:32:35.192Z,18.71
2016-04-30T01:33:35.663Z,18.72
2016-04-30T01:34:35.135Z,18.66
2016-04-30T01:35:35.137Z,18.65
2016-04-30T01:36:35.108Z,18.69
2016-04-30T01:37:35.080Z,18.72
2016-04-30T01:38:35.066Z,18.64
2016-04-30T01:39:35.601Z,18.62
2016-04-30T01:40:34.869Z,18.74
2016-04-30T01:41:35.012Z,18.68
2016-04-30T01:42:34.984Z,18.71
2016-04-30T01:43:34.971Z,18.68
2016-04-30T01:44:34.958Z,18.66
2016-04-30T01:45:34.930Z,18.64
2016-04-30T01:46:34.917Z,18.66
2016-04-30T01:47:34.840Z,18.62
2016-04-30T01:48:35.812Z,18.6
2016-04-30T01:49:34.862Z,18.62
2016-04-30T01:50:34.833Z,18.71
2016-04-30T01:51:34.665Z,18.59
2016-04-30T01:52:34.823Z,18.6
2016-04-30T01:53:34.639Z,18.71
2016-04-30T01:54:34.609Z,18.65
2016-04-30T01:55:34.862Z,18.71
2016-04-30T01:56:34.740Z,18.65
2016-04-30T01:57:34.555Z,18.62
2016-04-30T01:58:34.699Z,18.65
2016-04-30T01:59:34.702Z,18.6
2016-04-30T02:00:34.673Z,18.65
2016-04-30T02:01:34.628Z,18.6
2016-04-30T02:02:34.616Z,18.59
2016-04-30T02:03:35.197Z,18.56
2016-04-30T02:04:34.591Z,18.59
2016-04-30T02:05:34.421Z,18.57
2016-04-30T02:06:34.533Z,18.56
2016-04-30T02:07:34.519Z,18.62
2016-04-30T02:08:34.507Z,18.56
2016-04-30T02:09:34.510Z,18.57
2016-04-30T02:10:34.465Z,18.53
2016-04-30T02:11:35.640Z,18.54
2016-04-30T02:12:34.471Z,18.54
2016-04-30T02:13:34.115Z,18.53
2016-04-30T02:14:34.398Z,18.5
2016-04-30T02:15:34.384Z,18.5
2016-04-30T02:16:34.372Z,18.59
2016-04-30T02:17:34.188Z,18.51
2016-04-30T02:18:34.378Z,18.51
2016-04-30T02:19:34.302Z,18.53
2016-04-30T02:20:34.289Z,18.53
2016-04-30T02:21:34.261Z,18.53
2016-04-30T02:22:34.248Z,18.5
2016-04-30T02:23:33.923Z,18.56
2016-04-30T02:24:34.206Z,18.5
2016-04-30T02:25:34.037Z,18.47
2016-04-30T02:26:34.524Z,18.5
2016-04-30T02:27:34.152Z,18.56
2016-04-30T02:28:34.123Z,18.49
2016-04-30T02:29:34.125Z,18.5
2016-04-30T02:30:34.114Z,18.49
2016-04-30T02:31:34.084Z,18.53
2016-04-30T02:32:34.072Z,18.54
2016-04-30T02:33:34.043Z,18.54
2016-04-30T02:34:34.389Z,18.53
2016-04-30T02:35:33.860Z,18.49
2016-04-30T02:36:34.004Z,18.51
2016-04-30T02:37:33.819Z,18.42
2016-04-30T02:38:33.947Z,18.36
2016-04-30T02:39:33.918Z,18.36
2016-04-30T02:40:33.905Z,18.41
2016-04-30T02:41:33.893Z,18.41
2016-04-30T02:42:34.535Z,18.49
2016-04-30T02:43:33.851Z,18.38
2016-04-30T02:44:33.838Z,18.36
2016-04-30T02:45:33.810Z,18.44
2016-04-30T02:46:33.656Z,18.38
2016-04-30T02:47:33.784Z,18.38
2016-04-30T02:48:33.770Z,18.39
2016-04-30T02:49:33.758Z,18.42
2016-04-30T02:50:33.839Z,18.44
2016-04-30T02:51:33.717Z,18.42
2016-04-30T02:52:33.687Z,18.39
2016-04-30T02:53:33.675Z,18.41
2016-04-30T02:54:33.645Z,18.32
2016-04-30T02:55:33.633Z,18.41
2016-04-30T02:56:33.481Z,18.39
2016-04-30T02:57:33.608Z,18.44
2016-04-30T02:58:33.767Z,18.42
2016-04-30T02:59:33.566Z,18.34
2016-04-30T03:00:33.536Z,18.41
2016-04-30T03:01:33.524Z,18.32
2016-04-30T03:02:33.511Z,18.38
2016-04-30T03:03:33.499Z,18.36
2016-04-30T03:04:33.798Z,18.35
2016-04-30T03:05:33.441Z,18.32
2016-04-30T03:06:33.835Z,18.32
2016-04-30T03:07:33.416Z,18.36
2016-04-30T03:08:33.403Z,18.32
2016-04-30T03:09:33.374Z,18.31
2016-04-30T03:10:33.346Z,18.32
2016-04-30T03:11:33.176Z,18.35
2016-04-30T03:12:33.319Z,18.34
2016-04-30T03:13:33.151Z,18.35
2016-04-30T03:14:33.293Z,18.31
2016-04-30T03:15:33.266Z,18.34
2016-04-30T03:16:33.237Z,18.34
2016-04-30T03:17:33.224Z,18.34
2016-04-30T03:18:33.210Z,18.34
2016-04-30T03:19:33.057Z,18.28
2016-04-30T03:20:33.169Z,18.31
2016-04-30T03:21:33.156Z,18.35
2016-04-30T03:22:33.128Z,18.31
2016-04-30T03:23:33.115Z,18.34
2016-04-30T03:24:33.086Z,18.31
2016-04-30T03:25:33.074Z,18.34
2016-04-30T03:26:33.045Z,18.28
2016-04-30T03:27:33.031Z,18.36
2016-04-30T03:28:33.019Z,18.28
2016-04-30T03:29:33.006Z,18.29
2016-04-30T03:30:32.978Z,18.28
2016-04-30T03:31:32.964Z,18.32
2016-04-30T03:32:33.001Z,18.31
2016-04-30T03:33:33.024Z,18.23
2016-04-30T03:34:33.441Z,18.35
2016-04-30T03:35:32.777Z,18.28
2016-04-30T03:36:33.130Z,18.23
2016-04-30T03:37:33.138Z,18.29
2016-04-30T03:38:32.972Z,18.32
2016-04-30T03:39:33.134Z,18.29
2016-04-30T03:40:32.983Z,18.25
2016-04-30T03:41:33.130Z,18.26
2016-04-30T03:42:32.969Z,18.28
2016-04-30T03:43:32.947Z,18.29
2016-04-30T03:44:33.097Z,18.23
2016-04-30T03:45:33.091Z,18.29
2016-04-30T03:46:33.070Z,18.34
2016-04-30T03:47:33.200Z,18.29
2016-04-30T03:48:33.033Z,18.21
2016-04-30T03:49:33.617Z,18.28
2016-04-30T03:50:33.013Z,18.29
2016-04-30T03:51:32.988Z,18.28
2016-04-30T03:52:32.976Z,18.21
2016-04-30T03:53:32.963Z,18.25
2016-04-30T03:54:32.936Z,18.26
2016-04-30T03:55:33.267Z,18.19
2016-04-30T03:56:32.927Z,18.17
2016-04-30T03:57:32.726Z,18.21
2016-04-30T03:58:32.871Z,18.21
2016-04-30T03:59:32.701Z,18.2
2016-04-30T04:00:32.830Z,18.25
2016-04-30T04:01:32.802Z,18.23
2016-04-30T04:02:32.633Z,18.16
2016-04-30T04:03:33.324Z,18.17
2016-04-30T04:04:32.622Z,18.25
2016-04-30T04:05:32.578Z,18.41
2016-04-30T04:06:32.409Z,18.66
2016-04-30T04:07:32.692Z,18.83
2016-04-30T04:08:32.680Z,19.13
2016-04-30T04:09:32.668Z,19.24
2016-04-30T04:10:32.498Z,19.3
2016-04-30T04:11:32.532Z,19.4
2016-04-30T04:12:32.472Z,19.45
2016-04-30T04:13:32.600Z,19.49
2016-04-30T04:14:32.399Z,19.47
2016-04-30T04:15:32.418Z,19.46
2016-04-30T04:16:32.545Z,19.46
2016-04-30T04:17:32.532Z,19.46
2016-04-30T04:18:32.488Z,19.39
2016-04-30T04:19:32.553Z,19.4
2016-04-30T04:20:32.462Z,19.42
2016-04-30T04:21:32.450Z,19.34
2016-04-30T04:22:32.280Z,19.31
2016-04-30T04:23:32.408Z,19.32
2016-04-30T04:24:32.410Z,19.32
2016-04-30T04:25:32.382Z,19.34
2016-04-30T04:26:32.213Z,19.25
2016-04-30T04:27:32.544Z,19.3
2016-04-30T04:28:32.172Z,19.3
2016-04-30T04:29:32.299Z,19.31
2016-04-30T04:30:32.302Z,19.2
2016-04-30T04:31:32.116Z,19.24
2016-04-30T04:32:32.260Z,19.25
2016-04-30T04:33:32.231Z,19.2
2016-04-30T04:34:32.453Z,19.23
2016-04-30T04:35:32.549Z,19.17
2016-04-30T04:36:32.177Z,19.27
2016-04-30T04:37:32.165Z,19.2
2016-04-30T04:38:32.151Z,19.2
2016-04-30T04:39:32.123Z,19.21
2016-04-30T04:40:32.110Z,19.2
2016-04-30T04:41:32.096Z,19.15
2016-04-30T04:42:32.209Z,19.17
2016-04-30T04:43:32.056Z,19.21
2016-04-30T04:44:31.886Z,19.16
2016-04-30T04:45:31.857Z,19.21
2016-04-30T04:46:31.985Z,19.2
2016-04-30T04:47:31.832Z,19.27
2016-04-30T04:48:31.975Z,19.27
2016-04-30T04:49:31.947Z,19.25
2016-04-30T04:50:32.167Z,19.3
2016-04-30T04:51:31.905Z,19.35
2016-04-30T04:52:31.875Z,19.43
2016-04-30T04:53:31.864Z,19.46
2016-04-30T04:54:31.850Z,19.45
2016-04-30T04:55:31.681Z,19.39
2016-04-30T04:56:31.824Z,19.4
2016-04-30T04:57:31.624Z,19.46
2016-04-30T04:58:32.236Z,19.4
2016-04-30T04:59:31.770Z,19.46
2016-04-30T05:00:31.742Z,19.45
2016-04-30T05:01:31.729Z,19.49
2016-04-30T05:02:31.700Z,19.47
2016-04-30T05:03:31.702Z,19.43
2016-04-30T05:04:31.862Z,19.4
2016-04-30T05:05:31.677Z,19.4
2016-04-30T05:06:32.243Z,19.32
2016-04-30T05:07:31.620Z,19.4
2016-04-30T05:08:31.451Z,19.4
2016-04-30T05:09:31.421Z,19.4
2016-04-30T05:10:31.565Z,19.49
2016-04-30T05:11:31.537Z,19.47
2016-04-30T05:12:31.524Z,19.43
2016-04-30T05:13:31.354Z,19.5
2016-04-30T05:14:31.498Z,19.52
2016-04-30T05:15:31.470Z,19.58
2016-04-30T05:16:31.456Z,19.58
2016-04-30T05:17:31.287Z,19.65
2016-04-30T05:18:31.431Z,19.64
2016-04-30T05:19:31.090Z,19.67
2016-04-30T05:20:31.373Z,19.57
2016-04-30T05:21:31.376Z,19.7
2016-04-30T05:22:32.253Z,19.65
2016-04-30T05:23:31.350Z,19.7
2016-04-30T05:24:31.166Z,19.61
2016-04-30T05:25:31.294Z,19.65
2016-04-30T05:26:31.280Z,19.57
2016-04-30T05:27:31.252Z,19.55
2016-04-30T05:28:31.239Z,19.62
2016-04-30T05:29:31.225Z,19.58
2016-04-30T05:30:31.525Z,19.57
2016-04-30T05:31:31.200Z,19.52
2016-04-30T05:32:31.187Z,19.46
2016-04-30T05:33:31.158Z,19.43
2016-04-30T05:34:31.130Z,19.55
2016-04-30T05:35:31.132Z,19.4
2016-04-30T05:36:31.105Z,19.43
2016-04-30T05:37:31.122Z,19.43
2016-04-30T05:38:31.532Z,19.55
2016-04-30T05:39:30.909Z,19.46
2016-04-30T05:40:31.021Z,19.53
2016-04-30T05:41:31.007Z,19.57
2016-04-30T05:42:30.995Z,19.53
2016-04-30T05:43:30.964Z,19.61
2016-04-30T05:44:30.951Z,19.6
2016-04-30T05:45:30.985Z,19.58
2016-04-30T05:46:30.926Z,19.64
2016-04-30T05:47:30.896Z,19.65
2016-04-30T05:48:30.868Z,19.8
2016-04-30T05:49:30.559Z,19.67
2016-04-30T05:50:30.701Z,19.71
2016-04-30T05:51:30.829Z,19.65
2016-04-30T05:52:30.816Z,19.71
2016-04-30T05:53:31.241Z,19.64
2016-04-30T05:54:30.619Z,19.6
2016-04-30T05:55:30.761Z,19.65
2016-04-30T05:56:30.749Z,19.62
2016-04-30T05:57:30.720Z,19.58
2016-04-30T05:58:30.692Z,19.62
2016-04-30T05:59:30.695Z,19.61
2016-04-30T06:00:30.667Z,19.68
2016-04-30T06:01:30.996Z,19.6
2016-04-30T06:02:30.640Z,19.58
2016-04-30T06:03:30.612Z,19.62
2016-04-30T06:04:31.599Z,19.52
2016-04-30T06:05:30.430Z,19.65
2016-04-30T06:06:30.572Z,19.65
2016-04-30T06:07:30.388Z,19.71
2016-04-30T06:08:30.532Z,19.71
2016-04-30T06:09:31.159Z,19.78
2016-04-30T06:10:30.333Z,19.75
2016-04-30T06:11:30.477Z,19.8
2016-04-30T06:12:30.293Z,19.8
2016-04-30T06:13:30.435Z,19.83
2016-04-30T06:14:30.423Z,19.85
2016-04-30T06:15:30.253Z,19.9
2016-04-30T06:16:30.381Z,19.87
2016-04-30T06:17:30.462Z,19.92
2016-04-30T06:18:30.339Z,19.85
2016-04-30T06:19:30.248Z,19.87
2016-04-30T06:20:30.314Z,19.87
2016-04-30T06:21:30.301Z,19.87
2016-04-30T06:22:30.272Z,19.83
2016-04-30T06:23:30.253Z,19.82
2016-04-30T06:24:30.241Z,19.82
2016-04-30T06:25:31.211Z,19.79
2016-04-30T06:26:30.214Z,19.87
2016-04-30T06:27:30.186Z,19.86
2016-04-30T06:28:30.017Z,19.83
2016-04-30T06:29:30.160Z,19.83
2016-04-30T06:30:30.132Z,19.86
2016-04-30T06:31:30.119Z,19.8
2016-04-30T06:32:30.091Z,19.83
2016-04-30T06:33:30.483Z,19.86
2016-04-30T06:34:30.564Z,19.94
2016-04-30T06:35:29.879Z,19.89
2016-04-30T06:36:30.038Z,19.92
2016-04-30T06:37:30.010Z,19.89
2016-04-30T06:38:29.996Z,19.86
2016-04-30T06:39:29.984Z,19.86
2016-04-30T06:40:29.971Z,19.86
2016-04-30T06:41:29.927Z,19.82
2016-04-30T06:42:29.929Z,19.89
2016-04-30T06:43:29.901Z,19.92
2016-04-30T06:44:29.887Z,19.82
2016-04-30T06:45:29.859Z,19.79
2016-04-30T06:46:29.846Z,19.83
2016-04-30T06:47:29.833Z,19.79
2016-04-30T06:48:29.820Z,19.82
2016-04-30T06:49:29.667Z,19.83
2016-04-30T06:50:29.779Z,19.76
2016-04-30T06:51:29.767Z,19.72
2016-04-30T06:52:29.581Z,19.83
2016-04-30T06:53:29.583Z,19.79
2016-04-30T06:54:29.556Z,19.82
2016-04-30T06:55:29.684Z,19.85
2016-04-30T06:56:29.373Z,19.79
2016-04-30T06:57:29.657Z,19.85
2016-04-30T06:58:29.628Z,19.83
2016-04-30T06:59:29.303Z,19.83
2016-04-30T07:00:29.588Z,19.85
2016-04-30T07:01:29.591Z,19.85
2016-04-30T07:02:29.405Z,19.87
2016-04-30T07:03:29.549Z,19.87
2016-04-30T07:04:29.380Z,19.94
2016-04-30T07:05:29.507Z,19.92
2016-04-30T07:06:29.493Z,19.92
2016-04-30T07:07:29.310Z,19.97
2016-04-30T07:08:29.452Z,19.86
2016-04-30T07:09:29.440Z,19.79
2016-04-30T07:10:29.427Z,19.83
2016-04-30T07:11:29.398Z,19.85
2016-04-30T07:12:29.385Z,19.89
2016-04-30T07:13:29.373Z,19.86
2016-04-30T07:14:29.500Z,19.83
2016-04-30T07:15:29.174Z,19.85
2016-04-30T07:16:29.349Z,19.85
2016-04-30T07:17:29.149Z,19.8
2016-04-30T07:18:29.276Z,19.82
2016-04-30T07:19:30.092Z,19.82
2016-04-30T07:20:29.234Z,19.64
2016-04-30T07:21:29.237Z,19.75
2016-04-30T07:22:29.506Z,19.75
2016-04-30T07:23:29.181Z,19.76
2016-04-30T07:24:29.183Z,19.7
2016-04-30T07:25:28.998Z,19.71
2016-04-30T07:26:29.158Z,19.68
2016-04-30T07:27:29.144Z,19.7
2016-04-30T07:28:28.959Z,19.7
2016-04-30T07:29:29.072Z,19.8
2016-04-30T07:30:29.512Z,19.68
2016-04-30T07:31:29.046Z,19.68
2016-04-30T07:32:28.877Z,19.71
2016-04-30T07:33:28.863Z,19.68
2016-04-30T07:34:28.850Z,19.78
2016-04-30T07:35:28.978Z,19.75
2016-04-30T07:36:28.950Z,19.8
2016-04-30T07:37:28.968Z,19.86
2016-04-30T07:38:29.533Z,19.85
2016-04-30T07:39:28.911Z,19.89
2016-04-30T07:40:28.726Z,19.98
2016-04-30T07:41:28.869Z,19.89
2016-04-30T07:42:28.685Z,19.97
2016-04-30T07:43:28.687Z,19.85
2016-04-30T07:44:28.815Z,19.85
2016-04-30T07:45:28.802Z,19.83
2016-04-30T07:46:28.789Z,19.86
2016-04-30T07:47:28.604Z,19.86
2016-04-30T07:48:28.732Z,19.82
2016-04-30T07:49:28.720Z,19.79
2016-04-30T07:50:28.706Z,19.85
2016-04-30T07:51:28.537Z,19.87
2016-04-30T07:52:28.523Z,19.79
2016-04-30T07:53:28.651Z,19.86
2016-04-30T07:54:28.779Z,19.83
2016-04-30T07:55:28.626Z,19.97
2016-04-30T07:56:28.456Z,19.98
2016-04-30T07:57:28.584Z,20.01
2016-04-30T07:58:28.556Z,20.04
2016-04-30T07:59:28.542Z,20.08
2016-04-30T08:00:28.374Z,20.15
2016-04-30T08:01:28.517Z,20.16
2016-04-30T08:02:28.785Z,20.12
2016-04-30T08:03:28.475Z,20.16
2016-04-30T08:04:28.463Z,20.13
2016-04-30T08:05:28.293Z,20.15
2016-04-30T08:06:28.421Z,20.12
2016-04-30T08:07:28.407Z,20.13
2016-04-30T08:08:28.396Z,20.12
2016-04-30T08:09:28.430Z,20.12
2016-04-30T08:10:28.807Z,19.94
2016-04-30T08:11:28.340Z,20
2016-04-30T08:12:28.327Z,19.95
2016-04-30T08:13:28.299Z,20
2016-04-30T08:14:28.129Z,19.92
2016-04-30T08:15:28.101Z,19.87
2016-04-30T08:16:28.260Z,19.92
2016-04-30T08:17:28.435Z,19.86
2016-04-30T08:18:28.218Z,19.9
2016-04-30T08:19:28.909Z,19.85
2016-04-30T08:20:28.178Z,19.85
2016-04-30T08:21:28.008Z,19.83
2016-04-30T08:22:28.136Z,19.82
2016-04-30T08:23:28.123Z,19.8
2016-04-30T08:24:28.110Z,19.76
2016-04-30T08:25:28.426Z,19.85
2016-04-30T08:26:28.069Z,19.87
2016-04-30T08:27:28.055Z,19.79
2016-04-30T08:28:27.887Z,19.78
2016-04-30T08:29:27.858Z,19.83
2016-04-30T08:30:28.000Z,19.86
2016-04-30T08:31:27.989Z,19.82
2016-04-30T08:32:27.960Z,19.85
2016-04-30T08:33:28.447Z,19.97
2016-04-30T08:34:27.761Z,19.94
2016-04-30T08:35:27.905Z,19.97
2016-04-30T08:36:27.891Z,19.92
2016-04-30T08:37:27.880Z,19.98
2016-04-30T08:38:27.726Z,20.02
2016-04-30T08:39:27.837Z,20.16
2016-04-30T08:40:27.824Z,20.15
2016-04-30T08:41:27.546Z,20.04
2016-04-30T08:42:27.783Z,20.05
2016-04-30T08:43:27.770Z,20.1
2016-04-30T08:44:27.757Z,20.1
2016-04-30T08:45:27.588Z,20.05
2016-04-30T08:46:27.716Z,20.07
2016-04-30T08:47:27.375Z,20.07
2016-04-30T08:48:27.534Z,20.15
2016-04-30T08:49:28.193Z,20.08
2016-04-30T08:50:27.634Z,20.1
2016-04-30T08:51:27.636Z,20.04
2016-04-30T08:52:27.607Z,20.07
2016-04-30T08:53:27.595Z,20.1
2016-04-30T08:54:27.581Z,20.15
2016-04-30T08:55:27.552Z,20.1
2016-04-30T08:56:27.539Z,20.07
2016-04-30T08:57:27.714Z,19.97
2016-04-30T08:58:27.342Z,19.9
2016-04-30T08:59:27.485Z,19.83
2016-04-30T09:00:27.456Z,19.68
2016-04-30T09:01:27.444Z,19.7
2016-04-30T09:02:27.447Z,19.65
2016-04-30T09:03:27.418Z,19.64
2016-04-30T09:04:27.514Z,19.61
2016-04-30T09:05:27.236Z,19.68
2016-04-30T09:06:27.348Z,19.68
2016-04-30T09:07:27.350Z,19.7
2016-04-30T09:08:27.182Z,19.67
2016-04-30T09:09:27.169Z,19.64
2016-04-30T09:10:27.140Z,19.62
2016-04-30T09:11:27.282Z,19.68
2016-04-30T09:12:27.348Z,19.83
2016-04-30T09:13:27.101Z,19.72
2016-04-30T09:14:27.229Z,19.71
2016-04-30T09:15:26.887Z,19.76
2016-04-30T09:16:27.203Z,19.8
2016-04-30T09:17:27.159Z,19.82
2016-04-30T09:18:27.177Z,19.87
2016-04-30T09:19:27.148Z,20.17
2016-04-30T09:20:27.214Z,20.51
2016-04-30T09:21:26.795Z,20.78
2016-04-30T09:22:27.095Z,20.87
2016-04-30T09:23:27.065Z,20.96
2016-04-30T09:24:27.053Z,21.13
2016-04-30T09:25:27.431Z,21.19
2016-04-30T09:26:27.012Z,21.26
2016-04-30T09:27:26.997Z,21.33
2016-04-30T09:28:27.219Z,21.42
2016-04-30T09:29:26.972Z,21.51
2016-04-30T09:30:26.944Z,21.53
2016-04-30T09:31:26.946Z,21.52
2016-04-30T09:32:26.933Z,21.63
2016-04-30T09:33:26.749Z,21.73
2016-04-30T09:34:26.892Z,21.75
2016-04-30T09:35:26.550Z,21.75
2016-04-30T09:36:27.445Z,21.82
2016-04-30T09:37:26.525Z,21.75
2016-04-30T09:38:26.808Z,21.82
2016-04-30T09:39:26.640Z,21.74
2016-04-30T09:40:26.627Z,21.75
2016-04-30T09:41:26.755Z,21.71
2016-04-30T09:42:26.757Z,21.74
2016-04-30T09:43:26.729Z,21.73
2016-04-30T09:44:27.262Z,21.73
2016-04-30T09:45:26.703Z,21.63
2016-04-30T09:46:26.674Z,21.64
2016-04-30T09:47:26.661Z,21.63
2016-04-30T09:48:26.649Z,21.55
2016-04-30T09:49:27.620Z,21.66
2016-04-30T09:50:26.606Z,21.53
2016-04-30T09:51:26.594Z,21.55
2016-04-30T09:52:26.675Z,21.49
2016-04-30T09:53:26.553Z,21.51
2016-04-30T09:54:26.540Z,21.49
2016-04-30T09:55:26.526Z,21.49
2016-04-30T09:56:26.514Z,21.45
2016-04-30T09:57:26.500Z,21.38
2016-04-30T09:58:26.472Z,21.4
2016-04-30T09:59:26.444Z,21.37
2016-04-30T10:00:26.697Z,21.49
2016-04-30T10:01:26.417Z,21.52
2016-04-30T10:02:26.405Z,21.55
2016-04-30T10:03:26.251Z,21.51
2016-04-30T10:04:26.223Z,21.52
2016-04-30T10:05:26.350Z,21.48
2016-04-30T10:06:26.338Z,21.52
2016-04-30T10:07:26.183Z,21.42
2016-04-30T10:08:26.546Z,21.48
2016-04-30T10:09:26.127Z,21.42
2016-04-30T10:10:26.254Z,21.4
2016-04-30T10:11:26.257Z,21.4
2016-04-30T10:12:26.229Z,21.36
2016-04-30T10:13:26.059Z,21.38
2016-04-30T10:14:26.188Z,21.37
2016-04-30T10:15:26.174Z,21.24
2016-04-30T10:16:26.161Z,21.28
2016-04-30T10:17:26.132Z,21.24
2016-04-30T10:18:26.135Z,21.24
2016-04-30T10:19:26.107Z,21.28
2016-04-30T10:20:26.093Z,21.24
2016-04-30T10:21:26.082Z,21.24
2016-04-30T10:22:26.052Z,21.28
2016-04-30T10:23:26.040Z,21.19
2016-04-30T10:24:25.871Z,21.21
2016-04-30T10:25:25.998Z,21.21
2016-04-30T10:26:25.984Z,21.26
2016-04-30T10:27:25.973Z,21.31
2016-04-30T10:28:25.943Z,21.24
2016-04-30T10:29:25.946Z,21.28
2016-04-30T10:30:25.918Z,21.22
2016-04-30T10:31:25.889Z,21.27
2016-04-30T10:32:25.720Z,21.27
2016-04-30T10:33:25.879Z,21.31
2016-04-30T10:34:26.538Z,21.28
2016-04-30T10:35:25.837Z,21.18
2016-04-30T10:36:25.808Z,21.26
2016-04-30T10:37:25.797Z,21.11
2016-04-30T10:38:25.783Z,21.24
2016-04-30T10:39:25.755Z,21.16
2016-04-30T10:40:25.726Z,21.11
2016-04-30T10:41:25.728Z,21.21
2016-04-30T10:42:25.560Z,21.08
2016-04-30T10:43:25.688Z,21.16
2016-04-30T10:44:25.502Z,21.16
2016-04-30T10:45:25.661Z,21.03
2016-04-30T10:46:25.492Z,21.11
2016-04-30T10:47:25.635Z,21.09
2016-04-30T10:48:25.451Z,21.16
2016-04-30T10:49:25.891Z,21.01
2016-04-30T10:50:25.565Z,20.94
2016-04-30T10:51:25.568Z,20.81
2016-04-30T10:52:25.523Z,20.85
2016-04-30T10:53:25.371Z,20.85
2016-04-30T10:54:25.343Z,20.78
2016-04-30T10:55:25.485Z,20.85
2016-04-30T10:56:25.457Z,20.87
2016-04-30T10:57:25.709Z,20.93
2016-04-30T10:58:25.274Z,21.01
2016-04-30T10:59:25.418Z,21.05
2016-04-30T11:00:25.389Z,21.16
2016-04-30T11:01:25.220Z,21.12
2016-04-30T11:02:25.363Z,21.22
2016-04-30T11:03:25.351Z,21.18
2016-04-30T11:04:25.181Z,21.26
2016-04-30T11:05:25.699Z,21.26
2016-04-30T11:06:25.312Z,21.26
2016-04-30T11:07:25.283Z,21.26
2016-04-30T11:08:25.254Z,21.33
2016-04-30T11:09:25.211Z,21.21
2016-04-30T11:10:25.089Z,21.21
2016-04-30T11:11:25.200Z,21.13
2016-04-30T11:12:25.186Z,21.11
2016-04-30T11:13:25.768Z,21.11
2016-04-30T11:14:25.323Z,21.15
2016-04-30T11:15:25.135Z,21.12
2016-04-30T11:16:25.095Z,21.16
2016-04-30T11:17:25.140Z,21.12
2016-04-30T11:18:24.924Z,21.18
2016-04-30T11:19:26.224Z,21.12
2016-04-30T11:20:24.883Z,21.08
2016-04-30T11:21:25.729Z,21.09
2016-04-30T11:22:25.013Z,20.96
2016-04-30T11:23:24.984Z,20.98
2016-04-30T11:24:24.971Z,20.91
2016-04-30T11:25:24.959Z,20.9
2016-04-30T11:26:24.929Z,20.88
2016-04-30T11:27:24.761Z,20.9
2016-04-30T11:28:24.904Z,20.87
2016-04-30T11:29:25.016Z,20.85
2016-04-30T11:30:24.878Z,20.85
2016-04-30T11:31:24.865Z,20.75
2016-04-30T11:32:24.820Z,20.76
2016-04-30T11:33:24.808Z,20.82
2016-04-30T11:34:24.780Z,20.79
2016-04-30T11:35:24.783Z,20.82
2016-04-30T11:36:24.770Z,20.72
2016-04-30T11:37:25.022Z,20.73
2016-04-30T11:38:24.711Z,20.82
2016-04-30T11:39:24.714Z,20.83
2016-04-30T11:40:24.686Z,20.82
2016-04-30T11:41:24.673Z,20.75
2016-04-30T11:42:24.645Z,20.78
2016-04-30T11:43:24.475Z,20.73
2016-04-30T11:44:24.619Z,20.73
2016-04-30T11:45:24.450Z,20.79
2016-04-30T11:46:24.578Z,20.88
2016-04-30T11:47:24.549Z,20.9
2016-04-30T11:48:24.551Z,20.87
2016-04-30T11:49:24.991Z,20.82
2016-04-30T11:50:24.526Z,20.91
2016-04-30T11:51:24.482Z,20.96
2016-04-30T11:52:24.640Z,20.98
2016-04-30T11:53:24.315Z,21
2016-04-30T11:54:24.442Z,21.01
2016-04-30T11:55:24.414Z,21.11
2016-04-30T11:56:24.245Z,21.11
2016-04-30T11:57:24.388Z,21.18
2016-04-30T11:58:24.375Z,21.13
2016-04-30T11:59:24.550Z,21.11
2016-04-30T12:00:24.334Z,21.24
2016-04-30T12:01:24.321Z,21.28
2016-04-30T12:02:24.293Z,21.26
2016-04-30T12:03:24.278Z,21.27
2016-04-30T12:04:26.031Z,21.42
2016-04-30T12:05:24.239Z,21.37
2016-04-30T12:06:24.241Z,21.4
2016-04-30T12:07:24.556Z,21.42
2016-04-30T12:08:24.184Z,21.49
2016-04-30T12:09:24.186Z,21.51
2016-04-30T12:10:24.172Z,21.52
2016-04-30T12:11:23.847Z,21.55
2016-04-30T12:12:24.116Z,21.52
2016-04-30T12:13:24.119Z,21.38
2016-04-30T12:14:23.933Z,21.37
2016-04-30T12:15:24.421Z,21.46
2016-04-30T12:16:24.049Z,21.43
2016-04-30T12:17:23.910Z,21.42
2016-04-30T12:18:23.866Z,21.33
2016-04-30T12:19:23.697Z,21.33
2016-04-30T12:20:23.997Z,21.34
2016-04-30T12:21:23.968Z,21.42
2016-04-30T12:22:23.971Z,21.4
2016-04-30T12:23:24.582Z,21.45
2016-04-30T12:24:23.914Z,21.42
2016-04-30T12:25:23.901Z,21.51
2016-04-30T12:26:23.873Z,21.48
2016-04-30T12:27:23.704Z,21.48
2016-04-30T12:28:23.846Z,21.52
2016-04-30T12:29:23.834Z,21.48
2016-04-30T12:30:23.837Z,21.42
2016-04-30T12:31:23.698Z,21.38
2016-04-30T12:32:23.778Z,21.43
2016-04-30T12:33:23.750Z,21.4
2016-04-30T12:34:23.612Z,21.26
2016-04-30T12:35:23.709Z,21.28
2016-04-30T12:36:23.696Z,21.27
2016-04-30T12:37:23.683Z,21.27
2016-04-30T12:38:23.681Z,21.26
2016-04-30T12:39:23.771Z,21.24
2016-04-30T12:40:23.737Z,21.33
2016-04-30T12:41:23.749Z,21.33
2016-04-30T12:42:23.792Z,21.42
2016-04-30T12:43:23.812Z,21.43
2016-04-30T12:44:23.643Z,21.48
2016-04-30T12:45:23.786Z,21.53
2016-04-30T12:46:23.787Z,21.63
2016-04-30T12:47:24.133Z,21.74
2016-04-30T12:48:23.632Z,21.85
2016-04-30T12:49:23.765Z,21.94
2016-04-30T12:50:23.741Z,22.08
2016-04-30T12:51:23.749Z,22.2
2016-04-30T12:52:23.726Z,22.26
2016-04-30T12:53:23.733Z,22.29
2016-04-30T12:54:23.535Z,22.15
2016-04-30T12:55:23.680Z,22.26